Time;durP1;ratioP1;P1;durP2;ratioP2;P2;SDS_P1;SDS_P2;PMS_P1;PMS_P2;Temp;Humidity;BMP_temperature;BMP_pressure;BME280_temperature;BME280_humidity;BME280_pressure;Samples;Min_cycle;Max_cycle;Signal;HPM_P1;HPM_P2
2022/10/19 00:02:04;;;;;;;0.32;0.32;;;14.00;99.90;;;;;;5001105;28;20191;-65
2022/10/19 00:04:29;;;;;;;0.00;0.00;;;14.00;99.90;;;;;;5001904;28;20282;-66
2022/10/19 00:06:55;;;;;;;0.38;0.38;;;14.00;99.90;;;;;;5004604;28;20183;-66
2022/10/19 00:09:21;;;;;;;0.17;0.17;;;14.00;99.90;;;;;;5009604;28;20250;-66
2022/10/19 00:11:48;;;;;;;0.00;0.00;;;14.00;99.90;;;;;;5000539;28;20183;-66
2022/10/19 00:14:20;;;;;;;0.20;0.20;;;14.00;99.90;;;;;;5008685;28;20179;-65
2022/10/19 00:16:47;;;;;;;0.10;0.10;;;13.90;99.90;;;;;;5001344;28;20386;-65
2022/10/19 00:19:21;;;;;;;0.95;0.52;;;13.90;99.90;;;;;;5007285;28;20190;-65
2022/10/19 00:21:47;;;;;;;0.08;0.08;;;13.90;99.90;;;;;;4995878;28;20689;-66
2022/10/19 00:24:13;;;;;;;0.00;0.00;;;13.80;99.90;;;;;;5007452;28;20206;-66
2022/10/19 00:26:38;;;;;;;0.03;0.03;;;13.80;99.90;;;;;;4997333;28;20274;-66
2022/10/19 00:29:04;;;;;;;0.08;0.08;;;13.80;99.90;;;;;;5007007;28;20300;-66
2022/10/19 00:31:30;;;;;;;0.00;0.00;;;13.80;99.90;;;;;;4995395;28;20250;-65
2022/10/19 00:33:56;;;;;;;0.55;0.55;;;13.80;99.90;;;;;;5002009;28;20195;-65
2022/10/19 00:36:33;;;;;;;0.00;0.00;;;13.80;99.90;;;;;;5009343;28;20226;-65
2022/10/19 00:39:00;;;;;;;0.00;0.00;;;13.80;99.90;;;;;;5013947;28;20277;-66
2022/10/19 00:41:29;;;;;;;0.00;0.00;;;13.80;99.90;;;;;;5013908;28;20183;-65
2022/10/19 00:43:59;;;;;;;0.45;0.45;;;13.80;99.90;;;;;;5013117;28;20225;-66
2022/10/19 00:46:27;;;;;;;0.00;0.00;;;13.90;99.90;;;;;;5006685;28;20215;-66
2022/10/19 00:48:57;;;;;;;1.15;1.10;;;13.90;99.90;;;;;;4994077;28;20211;-66
2022/10/19 00:51:26;;;;;;;0.00;0.00;;;13.90;99.90;;;;;;4995105;28;20187;-66
2022/10/19 00:53:52;;;;;;;0.00;0.00;;;13.90;99.90;;;;;;4994007;28;20171;-66
2022/10/19 00:56:18;;;;;;;0.08;0.08;;;13.90;99.90;;;;;;5001120;28;20191;-65
2022/10/19 00:58:45;;;;;;;0.47;0.47;;;13.90;99.90;;;;;;5007892;28;20226;-66
2022/10/19 01:01:16;;;;;;;1.25;1.17;;;14.00;99.90;;;;;;5010367;28;20654;-66
2022/10/19 01:03:42;;;;;;;0.20;0.20;;;14.00;99.90;;;;;;5005366;28;20222;-66
2022/10/19 01:06:09;;;;;;;0.00;0.00;;;14.00;99.90;;;;;;5011762;28;20568;-65
2022/10/19 01:08:34;;;;;;;0.00;0.00;;;14.00;99.90;;;;;;5004553;28;20198;-66
2022/10/19 01:11:34;;;;;;;0.08;0.08;;;14.00;99.90;;;;;;5005075;28;20209;-65
2022/10/19 01:14:07;;;;;;;0.00;0.00;;;14.10;99.90;;;;;;4995453;28;20214;-66
2022/10/19 01:16:39;;;;;;;0.00;0.00;;;14.10;99.90;;;;;;5011359;28;20294;-66
2022/10/19 01:19:31;;;;;;;0.00;0.00;;;14.10;99.90;;;;;;5010849;28;20198;-66
2022/10/19 01:22:32;;;;;;;0.00;0.00;;;14.20;99.90;;;;;;5011300;28;20261;-66
2022/10/19 01:25:07;;;;;;;0.10;0.10;;;14.20;99.90;;;;;;5010680;28;20282;-66
2022/10/19 01:28:02;;;;;;;0.20;0.20;;;14.20;99.90;;;;;;5004548;28;20186;-66
2022/10/19 01:30:36;;;;;;;0.00;0.00;;;14.30;99.90;;;;;;4994855;28;20756;-66
2022/10/19 01:33:24;;;;;;;0.43;0.43;;;14.30;99.90;;;;;;5002543;28;20183;-66
2022/10/19 01:35:57;;;;;;;0.00;0.00;;;14.40;99.90;;;;;;4994025;28;20302;-66
2022/10/19 01:38:34;;;;;;;0.10;0.10;;;14.40;99.90;;;;;;4994451;28;20294;-66
2022/10/19 01:41:18;;;;;;;0.38;0.38;;;14.40;99.90;;;;;;5006047;28;20182;-66
2022/10/19 01:44:17;;;;;;;0.15;0.10;;;14.40;99.90;;;;;;5000158;28;20229;-65
2022/10/19 01:46:51;;;;;;;0.20;0.20;;;14.50;99.90;;;;;;5000805;28;20180;-66
2022/10/19 01:49:31;;;;;;;0.00;0.00;;;14.50;99.90;;;;;;5002567;28;20216;-66
2022/10/19 01:52:03;;;;;;;0.00;0.00;;;14.50;99.90;;;;;;5000091;28;20215;-65
2022/10/19 01:54:38;;;;;;;0.13;0.13;;;14.50;99.90;;;;;;4995884;28;20218;-66
2022/10/19 01:57:06;;;;;;;0.28;0.28;;;14.50;99.90;;;;;;5011824;28;20206;-66
2022/10/19 01:59:32;;;;;;;0.10;0.10;;;14.60;99.90;;;;;;5006156;28;20206;-66
2022/10/19 02:01:59;;;;;;;0.10;0.10;;;14.60;99.90;;;;;;5007315;28;20725;-66
2022/10/19 02:04:25;;;;;;;0.08;0.08;;;14.60;99.90;;;;;;5012577;28;20634;-66
2022/10/19 02:06:52;;;;;;;0.00;0.00;;;14.60;99.90;;;;;;5007360;28;20662;-66
2022/10/19 02:09:19;;;;;;;0.30;0.30;;;14.60;99.90;;;;;;5008288;28;20194;-66
2022/10/19 02:11:52;;;;;;;0.38;0.38;;;14.60;99.90;;;;;;5007971;28;20182;-66
2022/10/19 02:14:21;;;;;;;0.00;0.00;;;14.60;99.90;;;;;;4998482;28;20187;-66
2022/10/19 02:16:56;;;;;;;0.25;0.25;;;14.60;99.90;;;;;;5003531;28;20179;-66
2022/10/19 02:19:22;;;;;;;0.55;0.28;;;14.60;99.90;;;;;;5002875;28;20281;-66
2022/10/19 02:21:48;;;;;;;0.15;0.15;;;14.60;99.90;;;;;;5000878;28;20262;-66
2022/10/19 02:24:13;;;;;;;0.47;0.47;;;14.60;99.90;;;;;;4994443;28;20202;-66
2022/10/19 02:26:40;;;;;;;0.20;0.20;;;14.60;99.90;;;;;;5004454;28;20175;-66
2022/10/19 02:29:06;;;;;;;0.25;0.22;;;14.60;99.90;;;;;;5000969;28;20602;-66
2022/10/19 02:31:32;;;;;;;0.52;0.10;;;14.60;99.90;;;;;;4992321;28;20550;-66
2022/10/19 02:33:58;;;;;;;0.00;0.00;;;14.60;99.90;;;;;;5004583;28;20182;-66
2022/10/19 02:36:24;;;;;;;0.10;0.10;;;14.60;99.90;;;;;;5008724;28;20187;-66
2022/10/19 02:38:49;;;;;;;0.45;0.45;;;14.60;99.90;;;;;;4995960;28;20223;-66
2022/10/19 02:41:30;;;;;;;0.38;0.20;;;14.50;99.90;;;;;;4997127;28;20187;-66
2022/10/19 02:44:03;;;;;;;0.00;0.00;;;14.50;99.90;;;;;;4998346;28;20191;-66
2022/10/19 02:46:36;;;;;;;0.03;0.03;;;14.50;99.90;;;;;;5014238;28;20565;-66
2022/10/19 02:49:05;;;;;;;0.28;0.28;;;14.50;99.90;;;;;;5015844;28;20171;-66
2022/10/19 02:51:36;;;;;;;0.00;0.00;;;14.50;99.90;;;;;;5007381;28;20186;-66
2022/10/19 02:54:03;;;;;;;0.00;0.00;;;14.50;99.90;;;;;;5001443;28;20536;-66
2022/10/19 02:56:29;;;;;;;0.00;0.00;;;14.60;99.90;;;;;;5008840;28;20218;-66
2022/10/19 02:58:55;;;;;;;0.05;0.05;;;14.60;99.90;;;;;;4998296;28;20666;-66
2022/10/19 03:01:20;;;;;;;0.35;0.25;;;14.60;99.90;;;;;;5010678;28;20183;-66
2022/10/19 03:03:46;;;;;;;0.43;0.10;;;14.60;99.90;;;;;;5008377;28;20709;-66
2022/10/19 03:06:12;;;;;;;0.00;0.00;;;14.50;99.90;;;;;;5007531;28;20186;-66
2022/10/19 03:08:37;;;;;;;0.05;0.05;;;14.50;99.90;;;;;;5008461;28;20182;-66
2022/10/19 03:11:03;;;;;;;0.00;0.00;;;14.60;99.90;;;;;;5013745;28;20542;-66
2022/10/19 03:13:29;;;;;;;0.05;0.05;;;14.60;99.90;;;;;;5005204;28;20183;-66
2022/10/19 03:15:54;;;;;;;0.28;0.20;;;14.60;99.90;;;;;;5012922;28;20212;-66
2022/10/19 03:18:20;;;;;;;0.20;0.20;;;14.50;99.90;;;;;;5003591;28;20247;-66
2022/10/19 03:20:45;;;;;;;0.15;0.15;;;14.50;99.90;;;;;;5004977;28;20189;-66
2022/10/19 03:23:11;;;;;;;0.10;0.10;;;14.50;99.90;;;;;;5013971;28;20189;-66
2022/10/19 03:25:36;;;;;;;0.05;0.00;;;14.60;99.90;;;;;;5014512;28;20179;-66
2022/10/19 03:28:02;;;;;;;0.20;0.20;;;14.50;99.90;;;;;;5009352;28;20294;-66
2022/10/19 03:30:27;;;;;;;0.25;0.25;;;14.50;99.90;;;;;;5000424;28;20237;-67
2022/10/19 03:32:53;;;;;;;0.20;0.20;;;14.50;99.90;;;;;;4995241;28;20651;-67
2022/10/19 03:35:18;;;;;;;0.43;0.43;;;14.50;99.90;;;;;;5010702;28;20179;-66
2022/10/19 03:37:44;;;;;;;0.00;0.00;;;14.50;99.90;;;;;;5010485;28;20262;-65
2022/10/19 03:40:09;;;;;;;0.00;0.00;;;14.40;99.90;;;;;;5002056;28;20583;-64
2022/10/19 03:42:35;;;;;;;0.10;0.10;;;14.40;99.90;;;;;;5014808;28;20265;-65
2022/10/19 03:45:01;;;;;;;0.00;0.00;;;14.40;99.90;;;;;;5013905;28;20183;-65
2022/10/19 03:47:26;;;;;;;0.00;0.00;;;14.50;99.90;;;;;;5009983;28;20186;-66
2022/10/19 03:49:52;;;;;;;0.20;0.20;;;14.40;99.90;;;;;;5009967;28;20187;-66
2022/10/19 03:52:18;;;;;;;0.05;0.05;;;14.40;99.90;;;;;;5015002;28;20187;-66
2022/10/19 03:54:44;;;;;;;0.13;0.13;;;14.40;99.90;;;;;;5014754;28;20190;-65
2022/10/19 03:57:11;;;;;;;0.32;0.32;;;14.40;99.90;;;;;;5013872;28;20741;-72
2022/10/19 03:59:36;;;;;;;0.40;0.40;;;14.40;99.90;;;;;;5014352;28;20696;-69
2022/10/19 04:02:02;;;;;;;0.00;0.00;;;14.30;99.90;;;;;;5009455;28;20238;-73
2022/10/19 04:04:27;;;;;;;0.00;0.00;;;14.30;99.90;;;;;;5005064;28;20322;-70
2022/10/19 04:06:53;;;;;;;0.17;0.17;;;14.30;99.90;;;;;;5006398;28;20218;-66
2022/10/19 04:09:20;;;;;;;0.17;0.15;;;14.30;99.90;;;;;;5005020;28;20234;-69
2022/10/19 04:11:46;;;;;;;0.10;0.10;;;14.30;99.90;;;;;;4997183;28;20187;-69
2022/10/19 04:14:13;;;;;;;0.00;0.00;;;14.20;99.90;;;;;;4996608;28;20188;-68
2022/10/19 04:16:39;;;;;;;0.00;0.00;;;14.20;99.90;;;;;;5011809;28;20254;-71
2022/10/19 04:19:04;;;;;;;0.20;0.17;;;14.20;99.90;;;;;;5003146;28;20293;-71
2022/10/19 04:21:35;;;;;;;0.00;0.00;;;14.20;99.90;;;;;;5014319;28;20191;-70
2022/10/19 04:24:10;;;;;;;0.00;0.00;;;14.20;99.90;;;;;;5014154;28;20241;-72
2022/10/19 04:27:01;;;;;;;0.00;0.00;;;14.20;99.90;;;;;;5011666;28;20198;-73
2022/10/19 04:29:27;;;;;;;0.00;0.00;;;14.20;99.90;;;;;;4997534;28;20234;-73
2022/10/19 04:31:53;;;;;;;0.35;0.10;;;14.20;99.90;;;;;;4999815;28;20393;-71
2022/10/19 04:34:19;;;;;;;0.03;0.03;;;14.20;99.90;;;;;;5013864;28;20175;-72
2022/10/19 04:36:44;;;;;;;0.60;0.25;;;14.20;99.90;;;;;;5014058;28;20703;-73
2022/10/19 04:39:10;;;;;;;0.00;0.00;;;14.10;99.90;;;;;;5013593;28;20190;-70
2022/10/19 04:41:36;;;;;;;0.10;0.10;;;14.10;99.90;;;;;;5010433;28;20685;-65
2022/10/19 04:44:05;;;;;;;0.30;0.30;;;14.10;99.90;;;;;;4994311;28;20302;-68
2022/10/19 04:46:31;;;;;;;0.00;0.00;;;14.10;99.90;;;;;;4994822;28;20233;-69
2022/10/19 04:48:58;;;;;;;0.08;0.08;;;14.00;99.90;;;;;;5013772;28;20179;-68
2022/10/19 04:51:24;;;;;;;0.00;0.00;;;14.00;99.90;;;;;;5013850;28;20225;-68
2022/10/19 04:53:50;;;;;;;0.13;0.13;;;14.00;99.90;;;;;;5013866;28;20198;-69
2022/10/19 04:56:19;;;;;;;0.05;0.05;;;14.00;99.90;;;;;;5013641;28;20642;-69
2022/10/19 04:58:45;;;;;;;0.00;0.00;;;13.90;99.90;;;;;;5013668;28;20214;-68
2022/10/19 05:01:19;;;;;;;0.17;0.17;;;13.90;99.90;;;;;;5013430;28;20656;-68
2022/10/19 05:03:45;;;;;;;0.38;0.38;;;13.90;99.90;;;;;;5013672;28;20236;-69
2022/10/19 05:06:13;;;;;;;0.05;0.05;;;13.90;99.90;;;;;;5013481;28;20547;-68
2022/10/19 05:08:38;;;;;;;0.00;0.00;;;13.90;99.90;;;;;;5009006;28;20278;-68
2022/10/19 05:11:13;;;;;;;0.03;0.03;;;13.90;99.90;;;;;;4993933;28;20271;-69
2022/10/19 05:13:39;;;;;;;0.00;0.00;;;13.90;99.90;;;;;;4993803;28;20633;-69
2022/10/19 05:16:06;;;;;;;0.30;0.30;;;13.90;99.90;;;;;;4993747;28;20179;-69
2022/10/19 05:18:33;;;;;;;0.10;0.10;;;13.90;99.90;;;;;;4993545;28;20211;-68
2022/10/19 05:21:07;;;;;;;0.35;0.35;;;13.90;99.90;;;;;;4993675;28;20649;-68
2022/10/19 05:23:33;;;;;;;0.28;0.28;;;13.90;99.90;;;;;;4993609;28;20233;-68
2022/10/19 05:26:09;;;;;;;0.00;0.00;;;13.90;99.90;;;;;;4993592;28;20182;-68
2022/10/19 05:28:35;;;;;;;0.17;0.17;;;13.90;99.90;;;;;;5001589;28;20269;-68
2022/10/19 05:31:08;;;;;;;0.05;0.05;;;13.90;99.90;;;;;;5013248;28;20187;-69
2022/10/19 05:33:34;;;;;;;0.00;0.00;;;13.90;99.90;;;;;;5012914;28;20302;-69
2022/10/19 05:36:28;;;;;;;0.20;0.20;;;13.90;99.90;;;;;;5013098;28;20183;-69
2022/10/19 05:38:56;;;;;;;0.22;0.22;;;13.90;99.90;;;;;;5012322;28;20218;-68
2022/10/19 05:41:22;;;;;;;0.10;0.10;;;13.90;99.90;;;;;;5012822;28;20564;-68
2022/10/19 05:44:01;;;;;;;0.00;0.00;;;13.80;99.90;;;;;;5012990;28;20945;-68
2022/10/19 05:46:29;;;;;;;0.10;0.10;;;13.80;99.90;;;;;;5012881;28;20185;-68
2022/10/19 05:48:56;;;;;;;0.38;0.15;;;13.80;99.90;;;;;;5012961;28;20265;-69
2022/10/19 05:51:23;;;;;;;0.10;0.10;;;13.80;99.90;;;;;;5012759;28;20630;-69
2022/10/19 05:53:49;;;;;;;0.00;0.00;;;13.90;99.90;;;;;;5012864;28;20179;-68
2022/10/19 05:56:20;;;;;;;0.32;0.32;;;13.80;99.90;;;;;;5012670;28;20640;-68
2022/10/19 05:58:47;;;;;;;0.17;0.00;;;13.90;99.90;;;;;;5012777;28;20931;-69
2022/10/19 06:01:14;;;;;;;0.00;0.00;;;13.90;99.90;;;;;;5012800;28;20170;-68
2022/10/19 06:03:40;;;;;;;0.00;0.00;;;13.90;99.90;;;;;;5012611;28;20630;-68
2022/10/19 06:06:07;;;;;;;0.00;0.00;;;13.80;99.90;;;;;;5012582;28;20187;-68
2022/10/19 06:08:33;;;;;;;0.00;0.00;;;13.80;99.90;;;;;;5012332;28;20179;-68
2022/10/19 06:11:11;;;;;;;0.22;0.22;;;13.80;99.90;;;;;;5012389;28;20185;-69
2022/10/19 06:13:38;;;;;;;0.10;0.10;;;13.80;99.90;;;;;;5011769;28;20210;-68
2022/10/19 06:16:06;;;;;;;0.00;0.00;;;13.80;99.90;;;;;;5012450;28;20177;-68
2022/10/19 06:18:31;;;;;;;0.13;0.13;;;13.80;99.90;;;;;;5012265;28;20226;-69
2022/10/19 06:21:02;;;;;;;0.00;0.00;;;13.80;99.90;;;;;;5012325;28;20202;-68
2022/10/19 06:23:28;;;;;;;0.00;0.00;;;13.90;99.90;;;;;;5012348;28;20190;-68
2022/10/19 06:25:54;;;;;;;0.00;0.00;;;13.80;99.90;;;;;;5012372;28;20229;-68
2022/10/19 06:28:19;;;;;;;0.10;0.10;;;13.90;99.90;;;;;;5012102;28;20183;-67
2022/10/19 06:30:45;;;;;;;0.00;0.00;;;13.90;99.90;;;;;;5012410;28;20182;-69
2022/10/19 06:33:10;;;;;;;0.20;0.20;;;14.00;99.90;;;;;;5011927;28;20175;-68
2022/10/19 06:35:37;;;;;;;0.40;0.38;;;14.00;99.90;;;;;;5010622;28;20194;-68
2022/10/19 06:38:03;;;;;;;0.30;0.10;;;13.90;99.90;;;;;;5012011;28;20739;-68
2022/10/19 06:40:28;;;;;;;0.00;0.00;;;14.00;99.90;;;;;;5011955;28;20183;-69
2022/10/19 06:42:55;;;;;;;0.00;0.00;;;14.00;99.90;;;;;;5012299;28;20635;-68
2022/10/19 06:45:20;;;;;;;0.00;0.00;;;14.10;99.90;;;;;;5012174;28;20665;-68
2022/10/19 06:47:46;;;;;;;0.10;0.10;;;14.10;99.90;;;;;;5012127;28;20182;-68
2022/10/19 06:50:12;;;;;;;0.00;0.00;;;14.10;99.90;;;;;;5012164;28;20198;-68
2022/10/19 06:52:39;;;;;;;0.00;0.00;;;14.10;99.90;;;;;;5012098;28;20210;-68
2022/10/19 06:55:05;;;;;;;0.20;0.20;;;14.00;99.90;;;;;;5012173;28;20241;-68
2022/10/19 06:57:31;;;;;;;0.00;0.00;;;14.00;99.90;;;;;;5011895;28;20286;-68
2022/10/19 06:59:57;;;;;;;0.10;0.10;;;14.00;99.90;;;;;;5012063;28;20322;-68
2022/10/19 07:02:22;;;;;;;0.38;0.10;;;14.00;99.90;;;;;;5011952;28;20171;-68
2022/10/19 07:04:48;;;;;;;0.00;0.00;;;14.00;99.90;;;;;;5012066;28;20175;-68
2022/10/19 07:07:13;;;;;;;0.17;0.17;;;14.00;99.90;;;;;;5011883;28;20175;-68
2022/10/19 07:09:39;;;;;;;0.00;0.00;;;14.00;99.90;;;;;;5011824;28;20186;-68
2022/10/19 07:12:05;;;;;;;0.03;0.03;;;14.00;99.90;;;;;;5012049;28;20257;-68
2022/10/19 07:14:30;;;;;;;0.00;0.00;;;14.00;99.90;;;;;;5011908;28;20270;-68
2022/10/19 07:16:56;;;;;;;0.00;0.00;;;13.90;99.90;;;;;;5011844;28;20198;-68
2022/10/19 07:19:25;;;;;;;0.00;0.00;;;13.90;99.90;;;;;;5011808;28;20191;-69
2022/10/19 07:21:51;;;;;;;0.10;0.10;;;13.90;99.90;;;;;;5011966;28;20175;-68
2022/10/19 07:24:17;;;;;;;0.08;0.00;;;13.90;99.90;;;;;;5013962;28;20261;-68
2022/10/19 07:26:43;;;;;;;0.10;0.10;;;13.90;99.90;;;;;;5014196;28;20230;-68
2022/10/19 07:29:09;;;;;;;0.00;0.00;;;13.90;99.90;;;;;;5014037;28;20234;-68
2022/10/19 07:31:35;;;;;;;0.00;0.00;;;14.00;99.90;;;;;;5015471;28;20186;-69
2022/10/19 07:34:03;;;;;;;0.17;0.13;;;14.00;99.90;;;;;;5015373;28;20588;-68
2022/10/19 07:36:30;;;;;;;0.10;0.10;;;14.00;99.90;;;;;;5015142;28;20183;-68
2022/10/19 07:38:56;;;;;;;0.00;0.00;;;14.00;99.90;;;;;;5015162;28;20202;-69
2022/10/19 07:41:24;;;;;;;0.00;0.00;;;14.10;99.90;;;;;;5015079;28;20186;-69
2022/10/19 07:43:51;;;;;;;0.00;0.00;;;14.10;99.90;;;;;;5015263;28;20189;-69
2022/10/19 07:46:22;;;;;;;0.38;0.38;;;14.10;99.90;;;;;;5014997;28;20178;-69
2022/10/19 07:48:48;;;;;;;0.50;0.10;;;14.20;99.90;;;;;;5015130;28;20233;-69
2022/10/19 07:51:15;;;;;;;0.00;0.00;;;14.20;99.90;;;;;;5015064;28;20179;-68
2022/10/19 07:53:42;;;;;;;0.17;0.17;;;14.30;99.90;;;;;;5015061;28;20321;-68
2022/10/19 07:56:22;;;;;;;0.00;0.00;;;14.30;99.90;;;;;;5014842;28;20557;-67
2022/10/19 07:58:49;;;;;;;0.00;0.00;;;14.30;99.90;;;;;;5014712;28;20222;-68
2022/10/19 08:01:17;;;;;;;0.00;0.00;;;14.40;99.90;;;;;;5015017;28;20194;-68
2022/10/19 08:03:43;;;;;;;0.00;0.00;;;14.50;99.90;;;;;;5014907;28;20222;-68
2022/10/19 08:06:12;;;;;;;0.20;0.10;;;14.50;99.90;;;;;;5014775;28;20188;-68
2022/10/19 08:08:38;;;;;;;0.80;0.15;;;14.50;99.90;;;;;;5014504;28;20185;-68
2022/10/19 08:11:07;;;;;;;0.00;0.00;;;14.50;99.90;;;;;;5014740;28;20638;-68
2022/10/19 08:13:33;;;;;;;0.00;0.00;;;14.50;99.90;;;;;;5014732;28;20556;-68
2022/10/19 08:15:58;;;;;;;0.20;0.20;;;14.50;99.90;;;;;;5014574;28;20167;-69
2022/10/19 08:18:24;;;;;;;0.10;0.10;;;14.40;99.90;;;;;;5014389;28;20697;-69
2022/10/19 08:20:49;;;;;;;0.00;0.00;;;14.40;99.90;;;;;;5014472;28;20177;-68
2022/10/19 08:23:15;;;;;;;0.00;0.00;;;14.40;99.90;;;;;;5014313;28;20199;-68
2022/10/19 08:25:41;;;;;;;0.00;0.00;;;14.40;99.90;;;;;;5014503;28;20258;-68
2022/10/19 08:28:06;;;;;;;0.10;0.10;;;14.50;99.90;;;;;;5014346;28;20237;-68
2022/10/19 08:30:34;;;;;;;0.13;0.08;;;14.50;99.90;;;;;;5014083;28;20234;-69
2022/10/19 08:33:01;;;;;;;0.03;0.03;;;14.50;99.90;;;;;;5029513;28;20201;-68
2022/10/19 08:35:26;;;;;;;0.13;0.13;;;14.60;99.90;;;;;;5013517;28;20685;-68
2022/10/19 08:37:52;;;;;;;0.00;0.00;;;14.60;99.90;;;;;;5014060;28;20250;-68
2022/10/19 08:40:22;;;;;;;0.20;0.20;;;14.60;99.90;;;;;;5013964;28;20221;-69
2022/10/19 08:43:11;;;;;;;0.40;0.20;;;14.70;99.90;;;;;;5014071;28;20242;-68
2022/10/19 08:45:56;;;;;;;0.00;0.00;;;14.70;99.90;;;;;;5013978;28;20193;-68
2022/10/19 08:48:28;;;;;;;0.10;0.10;;;14.80;99.90;;;;;;5013895;28;20170;-68
2022/10/19 08:50:55;;;;;;;0.43;0.43;;;14.80;99.90;;;;;;5013968;28;20183;-68
2022/10/19 08:53:25;;;;;;;0.00;0.00;;;14.80;99.90;;;;;;5013821;28;20179;-68
2022/10/19 08:56:03;;;;;;;0.32;0.13;;;14.90;99.90;;;;;;5013845;28;20186;-68
2022/10/19 08:59:08;;;;;;;0.00;0.00;;;14.90;99.90;;;;;;5013683;28;20220;-68
2022/10/19 09:01:52;;;;;;;0.00;0.00;;;15.00;99.90;;;;;;5013725;28;20695;-68
2022/10/19 09:04:23;;;;;;;0.30;0.30;;;15.00;99.90;;;;;;5013618;28;20217;-68
2022/10/19 09:06:59;;;;;;;0.00;0.00;;;15.10;99.90;;;;;;5013659;28;20269;-68
2022/10/19 09:09:28;;;;;;;0.00;0.00;;;15.30;99.90;;;;;;5013498;28;20186;-68
2022/10/19 09:12:00;;;;;;;0.57;0.20;;;15.30;99.90;;;;;;5013536;28;20653;-68
2022/10/19 09:14:31;;;;;;;0.00;0.00;;;15.30;99.90;;;;;;5013431;28;20183;-68
2022/10/19 09:17:02;;;;;;;0.00;0.00;;;15.40;99.90;;;;;;5013309;28;20179;-67
2022/10/19 09:19:30;;;;;;;0.10;0.10;;;15.40;99.90;;;;;;5013342;28;20245;-68
2022/10/19 09:22:03;;;;;;;0.05;0.05;;;15.30;99.90;;;;;;5013337;28;20178;-67
2022/10/19 09:24:51;;;;;;;0.08;0.08;;;15.40;99.90;;;;;;5013269;28;20288;-67
2022/10/19 09:27:29;;;;;;;0.00;0.00;;;15.40;99.90;;;;;;5013104;28;20210;-68
2022/10/19 09:30:03;;;;;;;0.00;0.00;;;15.50;99.90;;;;;;5013007;28;20231;-68
2022/10/19 09:32:37;;;;;;;0.05;0.05;;;15.40;99.90;;;;;;5013088;28;20202;-68
2022/10/19 09:35:26;;;;;;;0.20;0.20;;;15.40;99.90;;;;;;5013025;28;20230;-68
2022/10/19 09:37:52;;;;;;;0.30;0.30;;;15.40;99.90;;;;;;5013246;28;20215;-68
2022/10/19 09:40:29;;;;;;;0.00;0.00;;;15.40;99.90;;;;;;5012932;28;20191;-67
2022/10/19 09:42:57;;;;;;;0.03;0.03;;;15.50;99.90;;;;;;5012964;28;20705;-68
2022/10/19 09:45:49;;;;;;;0.00;0.00;;;15.60;99.90;;;;;;5012950;28;20186;-68
2022/10/19 09:48:30;;;;;;;0.00;0.00;;;15.70;99.90;;;;;;5011948;28;20190;-67
2022/10/19 09:50:59;;;;;;;0.00;0.00;;;15.80;99.90;;;;;;5012705;28;20290;-68
2022/10/19 09:53:25;;;;;;;0.10;0.10;;;16.00;99.90;;;;;;5012765;28;20724;-67
2022/10/19 09:56:24;;;;;;;0.35;0.25;;;16.00;99.90;;;;;;5011431;28;20234;-68
2022/10/19 09:58:53;;;;;;;0.00;0.00;;;16.10;99.90;;;;;;5009249;28;20804;-68
2022/10/19 10:01:37;;;;;;;0.00;0.00;;;16.10;99.90;;;;;;5012534;28;20179;-68
2022/10/19 10:04:15;;;;;;;0.45;0.45;;;16.10;99.90;;;;;;5012507;28;20649;-68
2022/10/19 10:06:43;;;;;;;0.00;0.00;;;16.10;99.90;;;;;;5011412;28;20181;-70
2022/10/19 10:09:17;;;;;;;0.00;0.00;;;16.10;99.90;;;;;;5012513;28;20611;-68
2022/10/19 10:11:46;;;;;;;0.20;0.20;;;16.20;99.90;;;;;;5012734;28;20182;-68
2022/10/19 10:14:34;;;;;;;0.05;0.05;;;16.20;99.90;;;;;;5012483;28;20185;-68
2022/10/19 10:17:06;;;;;;;0.00;0.00;;;16.20;99.90;;;;;;5012361;28;20183;-68
2022/10/19 10:19:34;;;;;;;0.00;0.00;;;16.20;99.90;;;;;;5012455;28;20194;-68
2022/10/19 10:22:02;;;;;;;0.00;0.00;;;16.20;99.90;;;;;;5012495;28;20179;-68
2022/10/19 10:24:30;;;;;;;0.15;0.15;;;16.20;99.90;;;;;;5012269;28;20226;-68
2022/10/19 10:27:01;;;;;;;0.10;0.10;;;16.20;99.90;;;;;;5012376;28;20569;-69
2022/10/19 10:29:32;;;;;;;0.00;0.00;;;16.20;99.90;;;;;;5012046;28;20305;-68
2022/10/19 10:32:18;;;;;;;0.00;0.00;;;16.20;99.90;;;;;;5012374;28;20185;-69
2022/10/19 10:35:15;;;;;;;0.00;0.00;;;16.10;99.90;;;;;;5012193;28;20194;-67
2022/10/19 10:37:43;;;;;;;0.00;0.00;;;16.10;99.90;;;;;;5012316;28;20220;-69
2022/10/19 10:40:25;;;;;;;0.00;0.00;;;16.10;99.90;;;;;;5012231;28;20198;-67
2022/10/19 10:42:53;;;;;;;0.00;0.00;;;16.10;99.90;;;;;;5012143;28;20185;-70
2022/10/19 10:45:24;;;;;;;0.00;0.00;;;16.10;99.90;;;;;;5010806;28;20644;-69
2022/10/19 10:47:52;;;;;;;0.00;0.00;;;16.20;99.90;;;;;;5011031;28;20178;-68
2022/10/19 10:50:23;;;;;;;0.00;0.00;;;16.30;99.90;;;;;;5012081;28;20183;-68
2022/10/19 10:53:25;;;;;;;0.25;0.17;;;16.30;99.90;;;;;;5012201;28;20181;-68
2022/10/19 10:55:55;;;;;;;0.00;0.00;;;16.40;99.90;;;;;;5012118;28;20209;-68
2022/10/19 10:58:31;;;;;;;0.00;0.00;;;16.50;99.90;;;;;;5012922;28;20751;-68
2022/10/19 11:01:02;;;;;;;0.35;0.35;;;16.60;99.90;;;;;;5014789;28;20503;-68
2022/10/19 11:03:29;;;;;;;0.00;0.00;;;16.80;99.90;;;;;;5015974;28;20186;-68
2022/10/19 11:06:03;;;;;;;0.52;0.10;;;17.00;99.90;;;;;;5014997;28;20560;-68
2022/10/19 11:08:55;;;;;;;0.00;0.00;;;17.10;99.90;;;;;;5015721;28;20642;-68
2022/10/19 11:11:36;;;;;;;0.00;0.00;;;17.20;99.90;;;;;;5015812;28;20268;-68
2022/10/19 11:14:27;;;;;;;0.00;0.00;;;17.30;99.90;;;;;;5015859;28;20449;-68
2022/10/19 11:16:55;;;;;;;0.00;0.00;;;17.40;99.90;;;;;;5015854;28;20283;-68
2022/10/19 11:19:26;;;;;;;0.30;0.10;;;17.60;99.90;;;;;;5015312;28;20285;-69
2022/10/19 11:22:22;;;;;;;0.30;0.20;;;17.80;99.90;;;;;;5015607;28;20629;-68
2022/10/19 11:25:15;;;;;;;0.00;0.00;;;17.90;99.90;;;;;;5015553;28;20197;-69
2022/10/19 11:27:57;;;;;;;0.00;0.00;;;18.00;99.90;;;;;;5015392;28;20183;-69
2022/10/19 11:30:24;;;;;;;0.00;0.00;;;18.00;99.90;;;;;;5015138;28;20280;-68
2022/10/19 11:33:30;;;;;;;0.00;0.00;;;18.10;99.90;;;;;;5015513;28;20174;-68
2022/10/19 11:36:02;;;;;;;0.00;0.00;;;18.10;99.90;;;;;;5014975;28;20214;-69
2022/10/19 11:38:51;;;;;;;0.20;0.20;;;18.20;99.90;;;;;;5013731;28;20308;-68
2022/10/19 11:41:26;;;;;;;0.00;0.00;;;18.20;99.90;;;;;;5015172;28;20425;-68
2022/10/19 11:44:21;;;;;;;0.00;0.00;;;18.20;99.90;;;;;;5015269;28;20177;-69
2022/10/19 11:47:12;;;;;;;0.00;0.00;;;18.20;99.90;;;;;;5015288;28;20210;-69
2022/10/19 11:49:57;;;;;;;0.00;0.00;;;18.30;99.90;;;;;;5015178;28;20189;-68
2022/10/19 11:52:26;;;;;;;0.00;0.00;;;18.40;99.90;;;;;;5015070;28;20256;-68
2022/10/19 11:55:01;;;;;;;0.00;0.00;;;18.50;99.90;;;;;;5014998;28;20203;-68
2022/10/19 11:57:31;;;;;;;0.00;0.00;;;18.50;99.90;;;;;;5014916;28;20206;-69
2022/10/19 12:00:10;;;;;;;0.00;0.00;;;18.60;99.90;;;;;;5014920;28;20191;-69
2022/10/19 12:03:03;;;;;;;0.00;0.00;;;18.60;99.90;;;;;;5014775;28;20530;-68
2022/10/19 12:05:59;;;;;;;0.00;0.00;;;18.60;99.90;;;;;;5014776;28;20190;-68
2022/10/19 12:08:55;;;;;;;0.30;0.13;;;18.70;99.90;;;;;;5014563;28;20214;-68
2022/10/19 12:11:36;;;;;;;0.00;0.00;;;18.70;99.90;;;;;;5013748;28;20167;-68
2022/10/19 12:14:11;;;;;;;0.00;0.00;;;18.70;99.90;;;;;;5014757;28;20179;-68
2022/10/19 12:16:42;;;;;;;0.00;0.00;;;18.70;99.90;;;;;;5014656;28;20252;-68
2022/10/19 12:19:18;;;;;;;0.10;0.10;;;18.70;99.90;;;;;;5014423;28;20213;-67
2022/10/19 12:21:45;;;;;;;0.00;0.00;;;18.70;99.90;;;;;;5014509;28;20515;-68
2022/10/19 12:24:21;;;;;;;0.00;0.00;;;18.60;99.90;;;;;;5014497;28;20708;-67
2022/10/19 12:26:49;;;;;;;0.00;0.00;;;18.60;99.90;;;;;;5014507;28;20190;-69
2022/10/19 12:29:38;;;;;;;0.00;0.00;;;18.50;99.90;;;;;;5014045;28;20227;-68
2022/10/19 12:32:06;;;;;;;0.28;0.10;;;18.40;99.90;;;;;;5013088;28;20195;-67
2022/10/19 12:34:40;;;;;;;0.00;0.00;;;18.50;99.90;;;;;;5014025;28;20183;-68
2022/10/19 12:37:23;;;;;;;0.08;0.00;;;18.50;99.90;;;;;;5014289;28;20258;-68
2022/10/19 12:40:05;;;;;;;0.00;0.00;;;18.50;99.90;;;;;;5014293;28;20185;-68
2022/10/19 12:42:54;;;;;;;0.10;0.10;;;18.60;99.90;;;;;;5014068;28;20516;-68
2022/10/19 12:45:53;;;;;;;0.20;0.00;;;18.60;99.90;;;;;;5013944;28;20174;-67
2022/10/19 12:48:21;;;;;;;0.00;0.00;;;18.70;99.90;;;;;;5012740;28;20182;-68
2022/10/19 12:50:50;;;;;;;0.00;0.00;;;18.70;99.90;;;;;;5014007;28;20175;-68
2022/10/19 12:53:35;;;;;;;0.10;0.10;;;18.80;99.90;;;;;;5013810;28;20174;-68
2022/10/19 12:56:18;;;;;;;0.00;0.00;;;18.80;99.90;;;;;;5013963;28;20697;-68
2022/10/19 12:58:44;;;;;;;0.00;0.00;;;18.90;99.90;;;;;;5012552;28;20703;-68
2022/10/19 13:01:26;;;;;;;0.75;0.30;;;19.00;99.90;;;;;;5013716;28;20171;-68
2022/10/19 13:04:12;;;;;;;0.00;0.00;;;19.00;99.90;;;;;;5013770;28;20171;-68
2022/10/19 13:07:07;;;;;;;0.00;0.00;;;19.00;99.90;;;;;;5013478;28;20166;-68
2022/10/19 13:09:40;;;;;;;0.00;0.00;;;18.90;99.90;;;;;;5013504;28;20193;-68
2022/10/19 13:12:15;;;;;;;0.00;0.00;;;18.90;99.90;;;;;;5013936;28;20182;-68